Gt Bend, New York
Current Conditions -  °F | °C
As of 3:00 PM on Thursday 18 Dec 2014 (Local Time) from KGTB Reporting Station
Overcast Overcast  
Wind Chill: 21°   Ceiling: 1100
Heat Index: 28°   Visibility: 10mi
Dew Point: 23°   Wind: 7mph
Humidity: 80%   Direction: NA
Pressure: 29.95"   Gusts: NA
Location:  44.0344°N, 75.7193°W
Report Text: KGTB 182000Z AUTO VRB06KT 10SM OVC011 M02/M05 A2995 RMK AO2 UPB1951
Loading
Personal Weather Stations






























Interactive Weather Map New forecast layout! Learn more

10-Day Weather Forecast

Advertisements
Track Severe Weather on mobile